createdAt,value
2018-09-29T00:00:55.856Z,4.27
2018-09-29T00:01:55.847Z,4.27
2018-09-29T00:02:55.861Z,4.22
2018-09-29T00:03:55.819Z,4.27
2018-09-29T00:04:55.834Z,4.27
2018-09-29T00:05:55.815Z,4.24
2018-09-29T00:06:55.826Z,4.20
2018-09-29T00:07:55.779Z,4.23
2018-09-29T00:08:55.769Z,4.26
2018-09-29T00:09:55.777Z,4.24
2018-09-29T00:10:55.752Z,4.12
2018-09-29T00:11:55.776Z,4.24
2018-09-29T00:12:55.724Z,4.16
2018-09-29T00:13:55.720Z,4.16
2018-09-29T00:14:55.700Z,4.16
2018-09-29T00:15:55.717Z,4.16
2018-09-29T00:16:55.696Z,4.16
2018-09-29T00:17:55.666Z,4.18
2018-09-29T00:18:55.654Z,4.24
2018-09-29T00:19:55.676Z,4.18
2018-09-29T00:20:55.636Z,4.22
2018-09-29T00:21:55.633Z,4.15
2018-09-29T00:22:55.619Z,4.16
2018-09-29T00:23:55.632Z,4.15
2018-09-29T00:24:55.615Z,4.15
2018-09-29T00:25:55.578Z,4.16
2018-09-29T00:26:55.566Z,4.15
2018-09-29T00:27:55.683Z,4.20
2018-09-29T00:28:55.637Z,4.18
2018-09-29T00:29:55.571Z,4.06
2018-09-29T00:30:55.523Z,4.06
2018-09-29T00:31:55.514Z,4.06
2018-09-29T00:32:55.501Z,4.02
2018-09-29T00:34:04.377Z,4.05
2018-09-29T00:34:55.552Z,4.02
2018-09-29T00:35:55.466Z,4.00
2018-09-29T00:36:55.452Z,4.00
2018-09-29T00:37:55.444Z,4.02
2018-09-29T00:38:55.434Z,4.04
2018-09-29T00:39:55.453Z,3.97
2018-09-29T00:40:55.429Z,3.93
2018-09-29T00:41:55.403Z,4.00
2018-09-29T00:42:55.386Z,3.94
2018-09-29T00:43:55.377Z,3.94
2018-09-29T00:44:55.403Z,3.91
2018-09-29T00:45:55.377Z,3.91
2018-09-29T00:46:55.344Z,3.91
2018-09-29T00:47:55.328Z,3.93
2018-09-29T00:48:55.323Z,3.87
2018-09-29T00:49:55.336Z,3.88
2018-09-29T00:50:55.309Z,3.93
2018-09-29T00:51:55.283Z,3.91
2018-09-29T00:52:55.280Z,3.94
2018-09-29T00:53:55.260Z,3.88
2018-09-29T00:54:55.290Z,3.76
2018-09-29T00:55:55.241Z,3.87
2018-09-29T00:56:55.234Z,3.90
2018-09-29T00:57:55.246Z,3.91
2018-09-29T00:58:55.221Z,3.86
2018-09-29T00:59:55.222Z,3.80
2018-09-29T01:00:55.214Z,3.84
2018-09-29T01:01:55.190Z,3.80
2018-09-29T01:02:55.168Z,3.84
2018-09-29T01:03:55.171Z,3.80
2018-09-29T01:04:55.143Z,3.86
2018-09-29T01:05:55.165Z,3.80
2018-09-29T01:06:55.157Z,3.83
2018-09-29T01:07:55.107Z,3.80
2018-09-29T01:08:55.105Z,3.83
2018-09-29T01:09:55.111Z,3.79
2018-09-29T01:10:55.106Z,3.75
2018-09-29T01:11:55.069Z,3.73
2018-09-29T01:12:55.053Z,3.78
2018-09-29T01:13:55.068Z,3.69
2018-09-29T01:14:55.033Z,3.70
2018-09-29T01:15:55.032Z,3.73
2018-09-29T01:16:55.014Z,3.70
2018-09-29T01:17:55.000Z,3.73
2018-09-29T01:18:55.007Z,3.62
2018-09-29T01:19:54.978Z,3.75
2018-09-29T01:20:55.001Z,3.80
2018-09-29T01:21:54.987Z,3.66
2018-09-29T01:22:54.941Z,3.66
2018-09-29T01:23:54.926Z,3.68
2018-09-29T01:24:54.923Z,3.68
2018-09-29T01:25:54.914Z,3.69
2018-09-29T01:26:54.926Z,3.66
2018-09-29T01:27:54.906Z,3.73
2018-09-29T01:28:54.910Z,3.79
2018-09-29T01:29:54.863Z,3.66
2018-09-29T01:30:54.870Z,3.73
2018-09-29T01:31:54.841Z,3.68
2018-09-29T01:32:54.833Z,3.70
2018-09-29T01:33:54.854Z,3.66
2018-09-29T01:34:54.808Z,3.58
2018-09-29T01:35:54.799Z,3.58
2018-09-29T01:36:54.785Z,3.57
2018-09-29T01:37:54.812Z,3.58
2018-09-29T01:38:54.784Z,3.69
2018-09-29T01:39:54.778Z,3.61
2018-09-29T01:40:54.751Z,3.57
2018-09-29T01:41:54.728Z,3.70
2018-09-29T01:42:54.721Z,3.58
2018-09-29T01:43:54.705Z,3.66
2018-09-29T01:44:54.749Z,3.62
2018-09-29T01:45:54.688Z,3.68
2018-09-29T01:46:54.691Z,3.60
2018-09-29T01:47:54.697Z,3.70
2018-09-29T01:48:54.667Z,3.72
2018-09-29T01:49:54.641Z,3.66
2018-09-29T01:50:54.633Z,3.72
2018-09-29T01:51:54.618Z,3.65
2018-09-29T01:52:54.628Z,3.70
2018-09-29T01:53:54.605Z,3.68
2018-09-29T01:54:54.587Z,3.73
2018-09-29T01:55:54.575Z,3.61
2018-09-29T01:56:54.615Z,3.58
2018-09-29T01:57:54.553Z,3.58
2018-09-29T01:58:54.570Z,3.57
2018-09-29T01:59:54.531Z,3.52
2018-09-29T02:00:54.522Z,3.65
2018-09-29T02:01:54.512Z,3.54
2018-09-29T02:02:54.498Z,3.60
2018-09-29T02:03:54.512Z,3.55
2018-09-29T02:04:54.476Z,3.47
2018-09-29T02:05:54.467Z,3.48
2018-09-29T02:06:54.457Z,3.47
2018-09-29T02:07:54.464Z,3.33
2018-09-29T02:08:54.495Z,3.43
2018-09-29T02:09:54.416Z,3.39
2018-09-29T02:10:54.409Z,3.36
2018-09-29T02:11:54.403Z,3.29
2018-09-29T02:12:54.395Z,3.33
2018-09-29T02:13:54.416Z,3.32
2018-09-29T02:14:54.389Z,3.24
2018-09-29T02:15:54.352Z,3.21
2018-09-29T02:16:54.341Z,3.23
2018-09-29T02:17:54.346Z,3.14
2018-09-29T02:18:54.349Z,3.21
2018-09-29T02:19:54.315Z,3.24
2018-09-29T02:20:54.296Z,3.15
2018-09-29T02:21:54.284Z,3.10
2018-09-29T02:22:54.283Z,3.11
2018-09-29T02:23:54.285Z,3.08
2018-09-29T02:24:54.280Z,3.06
2018-09-29T02:25:54.250Z,3.11
2018-09-29T02:26:54.232Z,3.10
2018-09-29T02:27:54.219Z,3.11
2018-09-29T02:28:54.284Z,3.11
2018-09-29T02:29:54.206Z,3.14
2018-09-29T02:30:54.189Z,3.08
2018-09-29T02:31:54.220Z,3.14
2018-09-29T02:32:54.165Z,3.14
2018-09-29T02:33:54.173Z,3.23
2018-09-29T02:34:54.151Z,3.15
2018-09-29T02:35:54.140Z,3.29
2018-09-29T02:36:54.120Z,3.26
2018-09-29T02:37:54.136Z,3.17
2018-09-29T02:38:54.162Z,3.21
2018-09-29T02:39:54.091Z,3.24
2018-09-29T02:40:54.089Z,3.23
2018-09-29T02:41:54.062Z,3.23
2018-09-29T02:42:54.056Z,3.14
2018-09-29T02:43:54.073Z,3.11
2018-09-29T02:44:54.034Z,3.10
2018-09-29T02:45:54.020Z,3.17
2018-09-29T02:46:54.008Z,3.14
2018-09-29T02:47:54.038Z,3.15
2018-09-29T02:48:54.016Z,3.14
2018-09-29T02:49:53.978Z,3.06
2018-09-29T02:50:53.968Z,3.15
2018-09-29T02:51:53.977Z,3.10
2018-09-29T02:52:53.943Z,3.17
2018-09-29T02:53:53.958Z,3.13
2018-09-29T02:54:53.943Z,3.13
2018-09-29T02:55:53.922Z,3.06
2018-09-29T02:56:53.898Z,3.05
2018-09-29T02:57:53.923Z,3.10
2018-09-29T02:58:53.882Z,3.15
2018-09-29T02:59:53.868Z,3.00
2018-09-29T03:00:53.854Z,3.08
2018-09-29T03:01:53.842Z,3.05
2018-09-29T03:02:53.871Z,2.97
2018-09-29T03:03:53.833Z,2.96
2018-09-29T03:04:53.841Z,2.93
2018-09-29T03:05:53.800Z,2.87
2018-09-29T03:06:53.784Z,2.82
2018-09-29T03:07:53.799Z,2.84
2018-09-29T03:08:53.769Z,2.78
2018-09-29T03:09:53.791Z,2.75
2018-09-29T03:10:53.743Z,2.72
2018-09-29T03:11:53.732Z,2.79
2018-09-29T03:12:53.724Z,2.77
2018-09-29T03:13:53.724Z,2.71
2018-09-29T03:14:53.743Z,2.78
2018-09-29T03:15:53.686Z,2.75
2018-09-29T03:16:53.674Z,2.82
2018-09-29T03:17:53.664Z,2.87
2018-09-29T03:18:53.673Z,2.84
2018-09-29T03:19:53.662Z,3.02
2018-09-29T03:20:53.627Z,3.11
2018-09-29T03:21:53.662Z,3.00
2018-09-29T03:22:53.722Z,3.05
2018-09-29T03:23:53.605Z,3.05
2018-09-29T03:24:53.631Z,3.11
2018-09-29T03:25:53.570Z,3.14
2018-09-29T03:26:53.577Z,3.20
2018-09-29T03:27:53.561Z,3.11
2018-09-29T03:28:53.540Z,3.10
2018-09-29T03:29:53.594Z,3.14
2018-09-29T03:30:53.517Z,3.15
2018-09-29T03:31:53.640Z,3.11
2018-09-29T03:32:53.493Z,3.17
2018-09-29T03:33:53.488Z,3.15
2018-09-29T03:34:53.509Z,3.11
2018-09-29T03:35:53.463Z,3.11
2018-09-29T03:36:54.532Z,3.13
2018-09-29T03:37:53.661Z,3.13
2018-09-29T03:38:53.431Z,3.10
2018-09-29T03:39:53.484Z,3.10
2018-09-29T03:40:53.435Z,3.14
2018-09-29T03:41:53.460Z,3.21
2018-09-29T03:42:53.390Z,3.13
2018-09-29T03:43:53.476Z,3.18
2018-09-29T03:44:53.366Z,3.24
2018-09-29T03:45:53.352Z,3.28
2018-09-29T03:46:53.341Z,3.10
2018-09-29T03:47:53.356Z,3.17
2018-09-29T03:48:53.342Z,3.15
2018-09-29T03:49:53.311Z,3.13
2018-09-29T03:50:53.299Z,3.11
2018-09-29T03:51:53.325Z,3.10
2018-09-29T03:52:53.280Z,3.06
2018-09-29T03:53:53.263Z,3.11
2018-09-29T03:54:53.263Z,3.00
2018-09-29T03:55:53.424Z,3.14
2018-09-29T03:56:53.266Z,3.06
2018-09-29T03:57:53.218Z,3.10
2018-09-29T03:58:53.206Z,3.11
2018-09-29T03:59:53.195Z,3.28
2018-09-29T04:00:53.185Z,3.23
2018-09-29T04:01:53.209Z,3.14
2018-09-29T04:02:53.175Z,3.10
2018-09-29T04:03:53.184Z,3.11
2018-09-29T04:04:53.140Z,3.14
2018-09-29T04:05:53.132Z,3.03
2018-09-29T04:06:53.130Z,3.06
2018-09-29T04:07:53.108Z,3.03
2018-09-29T04:08:53.135Z,3.06
2018-09-29T04:09:53.085Z,3.00
2018-09-29T04:10:53.075Z,3.05
2018-09-29T04:11:53.063Z,3.03
2018-09-29T04:12:53.079Z,3.08
2018-09-29T04:13:53.161Z,3.03
2018-09-29T04:14:53.063Z,3.10
2018-09-29T04:15:53.025Z,3.05
2018-09-29T04:16:53.008Z,3.00
2018-09-29T04:17:52.998Z,2.87
2018-09-29T04:18:53.013Z,2.96
2018-09-29T04:19:52.978Z,2.93
2018-09-29T04:20:52.962Z,2.84
2018-09-29T04:21:52.965Z,2.90
2018-09-29T04:22:52.960Z,2.85
2018-09-29T04:23:52.952Z,2.89
2018-09-29T04:24:52.923Z,2.90
2018-09-29T04:25:52.927Z,2.84
2018-09-29T04:26:52.911Z,2.77
2018-09-29T04:27:52.945Z,2.74
2018-09-29T04:28:52.874Z,2.81
2018-09-29T04:29:52.864Z,2.82
2018-09-29T04:30:52.982Z,2.84
2018-09-29T04:31:52.960Z,2.79
2018-09-29T04:32:52.878Z,2.79
2018-09-29T04:33:52.832Z,2.81
2018-09-29T04:34:52.832Z,2.72
2018-09-29T04:35:52.811Z,2.77
2018-09-29T04:36:52.899Z,2.78
2018-09-29T04:37:52.772Z,2.79
2018-09-29T04:38:52.762Z,2.77
2018-09-29T04:39:52.786Z,2.79
2018-09-29T04:40:52.741Z,2.74
2018-09-29T04:41:52.729Z,2.78
2018-09-29T04:42:52.749Z,2.64
2018-09-29T04:43:52.710Z,2.77
2018-09-29T04:44:52.698Z,2.77
2018-09-29T04:45:52.685Z,2.67
2018-09-29T04:46:52.673Z,2.79
2018-09-29T04:47:52.691Z,2.71
2018-09-29T04:48:52.657Z,2.71
2018-09-29T04:49:52.643Z,2.67
2018-09-29T04:50:52.651Z,2.77
2018-09-29T04:51:52.640Z,2.66
2018-09-29T04:52:52.608Z,2.60
2018-09-29T04:53:52.611Z,2.63
2018-09-29T04:54:52.598Z,2.61
2018-09-29T04:55:52.571Z,2.64
2018-09-29T04:56:52.584Z,2.53
2018-09-29T04:57:52.550Z,2.60
2018-09-29T04:58:52.539Z,2.67
2018-09-29T04:59:52.538Z,2.60
2018-09-29T05:00:52.546Z,2.59
2018-09-29T05:01:52.508Z,2.66
2018-09-29T05:02:52.495Z,2.59
2018-09-29T05:03:52.487Z,2.63
2018-09-29T05:04:52.472Z,2.63
2018-09-29T05:05:52.540Z,2.72
2018-09-29T05:06:52.458Z,2.71
2018-09-29T05:07:52.439Z,2.71
2018-09-29T05:08:52.428Z,2.71
2018-09-29T05:09:52.417Z,2.69
2018-09-29T05:10:52.438Z,2.72
2018-09-29T05:11:52.400Z,2.78
2018-09-29T05:12:52.392Z,2.75
2018-09-29T05:13:52.390Z,2.69
2018-09-29T05:14:52.362Z,2.75
2018-09-29T05:15:52.383Z,2.74
2018-09-29T05:16:52.346Z,2.78
2018-09-29T05:17:52.362Z,2.78
2018-09-29T05:18:52.322Z,2.78
2018-09-29T05:19:52.305Z,2.77
2018-09-29T05:20:52.415Z,2.69
2018-09-29T05:21:52.282Z,2.75
2018-09-29T05:22:52.279Z,2.74
2018-09-29T05:23:52.260Z,2.71
2018-09-29T05:24:52.251Z,2.66
2018-09-29T05:25:52.263Z,2.64
2018-09-29T05:26:52.227Z,2.72
2018-09-29T05:27:52.242Z,2.66
2018-09-29T05:28:52.207Z,2.67
2018-09-29T05:29:52.193Z,2.64
2018-09-29T05:30:52.213Z,2.69
2018-09-29T05:31:52.178Z,2.61
2018-09-29T05:32:52.409Z,2.63
2018-09-29T05:33:52.168Z,2.64
2018-09-29T05:34:52.143Z,2.59
2018-09-29T05:35:52.124Z,2.66
2018-09-29T05:36:52.118Z,2.64
2018-09-29T05:37:52.133Z,2.67
2018-09-29T05:38:52.090Z,2.63
2018-09-29T05:39:52.084Z,2.63
2018-09-29T05:40:52.073Z,2.56
2018-09-29T05:41:52.057Z,2.61
2018-09-29T05:42:52.070Z,2.53
2018-09-29T05:43:52.075Z,2.63
2018-09-29T05:44:52.028Z,2.54
2018-09-29T05:45:52.023Z,2.57
2018-09-29T05:46:52.005Z,2.56
2018-09-29T05:47:51.991Z,2.57
2018-09-29T05:48:52.022Z,2.57
2018-09-29T05:49:51.973Z,2.66
2018-09-29T05:50:51.958Z,2.53
2018-09-29T05:51:51.958Z,2.64
2018-09-29T05:52:51.936Z,2.53
2018-09-29T05:53:51.978Z,2.60
2018-09-29T05:54:51.942Z,2.53
2018-09-29T05:55:51.903Z,2.59
2018-09-29T05:56:51.893Z,2.59
2018-09-29T05:57:51.899Z,2.53
2018-09-29T05:58:51.869Z,2.54
2018-09-29T05:59:51.883Z,2.56
2018-09-29T06:00:51.847Z,2.56
2018-09-29T06:01:51.835Z,2.64
2018-09-29T06:02:51.826Z,2.69
2018-09-29T06:03:51.854Z,2.63
2018-09-29T06:04:51.828Z,2.78
2018-09-29T06:05:51.795Z,2.75
2018-09-29T06:06:51.785Z,2.79
2018-09-29T06:07:51.771Z,2.72
2018-09-29T06:08:51.771Z,2.77
2018-09-29T06:09:51.780Z,2.72
2018-09-29T06:10:51.739Z,2.77
2018-09-29T06:11:51.727Z,2.75
2018-09-29T06:12:51.715Z,2.74
2018-09-29T06:13:51.733Z,2.74
2018-09-29T06:14:51.724Z,2.77
2018-09-29T06:15:51.716Z,2.79
2018-09-29T06:16:51.669Z,2.81
2018-09-29T06:17:51.667Z,2.79
2018-09-29T06:18:51.654Z,2.81
2018-09-29T06:19:51.665Z,2.92
2018-09-29T06:20:51.633Z,2.89
2018-09-29T06:21:51.619Z,2.97
2018-09-29T06:22:51.604Z,3.00
2018-09-29T06:23:51.615Z,3.05
2018-09-29T06:24:51.582Z,3.08
2018-09-29T06:25:51.573Z,2.96
2018-09-29T06:26:51.563Z,3.06
2018-09-29T06:27:51.564Z,3.10
2018-09-29T06:28:51.592Z,3.05
2018-09-29T06:29:51.526Z,3.11
2018-09-29T06:30:51.523Z,3.11
2018-09-29T06:31:51.527Z,3.18
2018-09-29T06:32:51.495Z,3.15
2018-09-29T06:33:51.543Z,3.18
2018-09-29T06:34:51.470Z,3.26
2018-09-29T06:35:51.459Z,3.31
2018-09-29T06:36:51.500Z,3.29
2018-09-29T06:37:51.446Z,3.31
2018-09-29T06:38:51.462Z,3.40
2018-09-29T06:39:59.193Z,3.43
2018-09-29T06:40:51.426Z,3.36
2018-09-29T06:41:51.395Z,3.52
2018-09-29T06:42:51.406Z,3.58
2018-09-29T06:43:51.374Z,3.58
2018-09-29T06:44:51.361Z,3.69
2018-09-29T06:45:51.349Z,3.61
2018-09-29T06:46:51.339Z,3.68
2018-09-29T06:47:51.387Z,3.76
2018-09-29T06:48:51.319Z,3.76
2018-09-29T06:49:51.318Z,3.78
2018-09-29T06:50:51.300Z,3.79
2018-09-29T06:51:51.306Z,3.91
2018-09-29T06:52:51.274Z,3.86
2018-09-29T06:53:51.699Z,4.04
2018-09-29T06:54:51.253Z,3.94
2018-09-29T06:55:51.258Z,4.02
2018-09-29T06:56:51.230Z,4.05
2018-09-29T06:57:51.221Z,4.12
2018-09-29T06:58:51.230Z,4.12
2018-09-29T06:59:51.200Z,4.14
2018-09-29T07:00:51.186Z,4.29
2018-09-29T07:01:51.198Z,4.32
2018-09-29T07:02:51.211Z,4.41
2018-09-29T07:03:51.177Z,4.44
2018-09-29T07:04:51.155Z,4.48
2018-09-29T07:05:51.127Z,4.52
2018-09-29T07:06:51.116Z,4.52
2018-09-29T07:07:51.125Z,4.55
2018-09-29T07:08:51.128Z,4.69
2018-09-29T07:09:51.084Z,4.80
2018-09-29T07:10:51.080Z,4.75
2018-09-29T07:11:51.063Z,4.91
2018-09-29T07:12:51.106Z,4.97
2018-09-29T07:13:51.070Z,4.97
2018-09-29T07:14:51.037Z,4.99
2018-09-29T07:15:51.022Z,5.04
2018-09-29T07:16:59.199Z,5.17
2018-09-29T07:17:50.995Z,5.21
2018-09-29T07:18:51.009Z,5.38
2018-09-29T07:19:50.972Z,5.36
2018-09-29T07:20:50.963Z,5.35
2018-09-29T07:21:51.083Z,5.45
2018-09-29T07:22:50.938Z,5.45
2018-09-29T07:23:50.952Z,5.46
2018-09-29T07:24:50.915Z,5.58
2018-09-29T07:25:50.933Z,5.60
2018-09-29T07:26:50.893Z,5.64
2018-09-29T07:27:50.883Z,5.74
2018-09-29T07:28:50.871Z,5.74
2018-09-29T07:29:50.864Z,5.83
2018-09-29T07:30:50.883Z,5.94
2018-09-29T07:31:50.839Z,5.91
2018-09-29T07:32:50.848Z,6.00
2018-09-29T07:33:50.816Z,5.96
2018-09-29T07:34:50.818Z,6.15
2018-09-29T07:35:50.849Z,6.14
2018-09-29T07:36:50.788Z,6.31
2018-09-29T07:37:50.770Z,6.44
2018-09-29T07:38:50.767Z,6.43
2018-09-29T07:39:50.749Z,6.64
2018-09-29T07:40:50.770Z,6.66
2018-09-29T07:41:50.737Z,6.76
2018-09-29T07:42:50.760Z,6.79
2018-09-29T07:43:50.713Z,6.92
2018-09-29T07:44:50.690Z,6.91
2018-09-29T07:45:50.703Z,6.97
2018-09-29T07:46:50.676Z,6.92
2018-09-29T07:47:50.672Z,7.12
2018-09-29T07:48:50.687Z,7.21
2018-09-29T07:49:50.636Z,7.24
2018-09-29T07:50:50.622Z,7.46
2018-09-29T07:51:50.611Z,7.55
2018-09-29T07:52:50.607Z,7.46
2018-09-29T07:53:50.624Z,7.55
2018-09-29T07:54:50.615Z,7.57
2018-09-29T07:55:50.608Z,7.64
2018-09-29T07:56:50.565Z,7.64
2018-09-29T07:57:50.545Z,7.77
2018-09-29T07:58:50.557Z,7.82
2018-09-29T07:59:50.523Z,7.85
2018-09-29T08:00:50.513Z,8.00
2018-09-29T08:01:50.530Z,8.04
2018-09-29T08:02:50.489Z,8.05
2018-09-29T08:03:50.481Z,8.18
2018-09-29T08:04:50.478Z,8.18
2018-09-29T08:05:50.453Z,8.16
2018-09-29T08:06:50.467Z,8.19
2018-09-29T08:07:50.431Z,8.18
2018-09-29T08:08:50.424Z,8.16
2018-09-29T08:09:50.433Z,8.29
2018-09-29T08:10:50.416Z,8.37
2018-09-29T08:11:50.388Z,8.38
2018-09-29T08:12:50.375Z,8.43
2018-09-29T08:13:50.363Z,8.45
2018-09-29T08:14:50.380Z,8.61
2018-09-29T08:15:50.346Z,8.73
2018-09-29T08:16:50.331Z,8.84
2018-09-29T08:17:50.323Z,8.94
2018-09-29T08:18:50.342Z,8.99
2018-09-29T08:19:50.299Z,9.11
2018-09-29T08:20:50.286Z,9.13
2018-09-29T08:21:50.284Z,9.10
2018-09-29T08:22:50.265Z,9.13
2018-09-29T08:23:50.277Z,9.15
2018-09-29T08:24:50.239Z,9.33
2018-09-29T08:25:50.233Z,9.31
2018-09-29T08:26:50.246Z,9.43
2018-09-29T08:27:50.223Z,9.48
2018-09-29T08:28:50.195Z,9.53
2018-09-29T08:29:50.187Z,9.51
2018-09-29T08:30:50.172Z,9.50
2018-09-29T08:31:50.192Z,9.48
2018-09-29T08:32:50.157Z,9.54
2018-09-29T08:33:50.142Z,9.60
2018-09-29T08:34:50.133Z,9.66
2018-09-29T08:35:50.115Z,9.79
2018-09-29T08:36:50.149Z,9.84
2018-09-29T08:37:50.155Z,9.99
2018-09-29T08:38:50.100Z,10.12
2018-09-29T08:39:50.070Z,10.23
2018-09-29T08:40:50.059Z,10.48
2018-09-29T08:41:50.081Z,10.52
2018-09-29T08:42:50.038Z,10.67
2018-09-29T08:43:50.028Z,10.84
2018-09-29T08:44:50.028Z,10.99
2018-09-29T08:45:50.004Z,11.15
2018-09-29T08:46:50.112Z,11.17
2018-09-29T08:47:49.979Z,11.32
2018-09-29T08:48:49.968Z,11.39
2018-09-29T08:49:49.971Z,11.39
2018-09-29T08:50:49.945Z,11.51
2018-09-29T08:51:49.973Z,11.70
2018-09-29T08:52:49.923Z,11.51
2018-09-29T08:53:49.914Z,11.51
2018-09-29T08:54:49.902Z,11.58
2018-09-29T08:55:49.896Z,11.75
2018-09-29T08:56:49.913Z,11.86
2018-09-29T08:57:49.917Z,12.07
2018-09-29T08:58:49.858Z,12.05
2018-09-29T08:59:49.849Z,12.19
2018-09-29T09:00:49.836Z,12.29
2018-09-29T09:01:49.828Z,12.27
2018-09-29T09:02:49.835Z,12.27
2018-09-29T09:03:49.843Z,12.27
2018-09-29T09:04:49.790Z,12.39
2018-09-29T09:05:49.776Z,12.42
2018-09-29T09:06:49.764Z,12.46
2018-09-29T09:07:49.785Z,12.53
2018-09-29T09:08:49.793Z,12.49
2018-09-29T09:09:49.734Z,12.49
2018-09-29T09:10:49.720Z,12.78
2018-09-29T09:11:49.710Z,12.93
2018-09-29T09:12:49.698Z,13.01
2018-09-29T09:13:49.710Z,12.95
2018-09-29T09:14:49.674Z,13.04
2018-09-29T09:15:49.665Z,13.01
2018-09-29T09:16:49.667Z,13.14
2018-09-29T09:17:49.640Z,13.03
2018-09-29T09:18:49.662Z,12.87
2018-09-29T09:19:49.619Z,12.54
2018-09-29T09:20:49.610Z,12.50
2018-09-29T09:21:49.597Z,12.78
2018-09-29T09:22:49.613Z,12.93
2018-09-29T09:23:49.664Z,13.25
2018-09-29T09:24:49.570Z,13.42
2018-09-29T09:25:49.553Z,13.45
2018-09-29T09:26:49.539Z,13.41
2018-09-29T09:27:49.534Z,13.55
2018-09-29T09:28:49.542Z,13.59
2018-09-29T09:29:49.564Z,13.55
2018-09-29T09:30:49.511Z,13.73
2018-09-29T09:31:49.485Z,13.73
2018-09-29T09:32:49.470Z,13.51
2018-09-29T09:33:49.483Z,13.33
2018-09-29T09:34:49.455Z,13.36
2018-09-29T09:35:49.436Z,13.63
2018-09-29T09:36:49.429Z,13.73
2018-09-29T09:37:49.417Z,13.84
2018-09-29T09:38:49.426Z,14.02
2018-09-29T09:39:49.395Z,14.24
2018-09-29T09:40:49.383Z,14.40
2018-09-29T09:41:49.408Z,14.50
2018-09-29T09:42:49.360Z,14.55
2018-09-29T09:43:49.346Z,14.62
2018-09-29T09:44:49.338Z,14.84
2018-09-29T09:45:49.329Z,14.96
2018-09-29T09:46:49.353Z,15.02
2018-09-29T09:47:49.314Z,15.02
2018-09-29T09:48:49.291Z,14.86
2018-09-29T09:49:49.347Z,14.84
2018-09-29T09:50:50.181Z,14.91
2018-09-29T09:51:49.278Z,14.77
2018-09-29T09:52:49.252Z,14.72
2018-09-29T09:53:49.237Z,14.42
2018-09-29T09:54:49.222Z,14.18
2018-09-29T09:55:49.252Z,14.10
2018-09-29T09:56:49.206Z,14.09
2018-09-29T09:57:49.215Z,14.07
2018-09-29T09:58:49.182Z,13.87
2018-09-29T09:59:49.173Z,13.73
2018-09-29T10:00:49.158Z,14.21
2018-09-29T10:01:49.176Z,14.36
2018-09-29T10:02:49.141Z,14.47
2018-09-29T10:03:49.126Z,14.24
2018-09-29T10:04:49.131Z,14.24
2018-09-29T10:05:49.109Z,14.37
2018-09-29T10:06:49.115Z,14.64
2018-09-29T10:07:49.084Z,14.88
2018-09-29T10:08:49.089Z,14.88
2018-09-29T10:09:49.055Z,14.89
2018-09-29T10:10:49.049Z,14.80
2018-09-29T10:11:49.069Z,14.69
2018-09-29T10:12:49.024Z,14.99
2018-09-29T10:13:49.031Z,14.96
2018-09-29T10:14:48.998Z,14.61
2018-09-29T10:15:48.989Z,14.52
2018-09-29T10:16:48.978Z,14.39
2018-09-29T10:17:48.993Z,14.50
2018-09-29T10:18:48.957Z,14.75
2018-09-29T10:19:48.945Z,14.61
2018-09-29T10:20:48.932Z,14.72
2018-09-29T10:21:48.923Z,14.96
2018-09-29T10:22:48.935Z,15.06
2018-09-29T10:23:48.898Z,15.09
2018-09-29T10:24:48.892Z,15.03
2018-09-29T10:25:48.873Z,14.91
2018-09-29T10:26:48.865Z,14.88
2018-09-29T10:27:49.068Z,15.06
2018-09-29T10:28:48.876Z,15.10
2018-09-29T10:29:48.829Z,15.20
2018-09-29T10:30:48.843Z,15.34
2018-09-29T10:31:48.810Z,15.36
2018-09-29T10:32:48.804Z,15.50
2018-09-29T10:33:48.791Z,15.59
2018-09-29T10:34:48.806Z,15.69
2018-09-29T10:35:48.767Z,15.49
2018-09-29T10:36:48.781Z,15.34
2018-09-29T10:37:48.740Z,15.36
2018-09-29T10:38:48.733Z,15.31
2018-09-29T10:39:48.744Z,15.46
2018-09-29T10:40:48.707Z,15.64
2018-09-29T10:41:48.716Z,15.80
2018-09-29T10:42:48.683Z,15.75
2018-09-29T10:43:48.671Z,15.64
2018-09-29T10:44:48.668Z,15.74
2018-09-29T10:45:48.650Z,15.72
2018-09-29T10:46:48.686Z,15.78
2018-09-29T10:47:48.626Z,15.72
2018-09-29T10:48:48.614Z,15.83
2018-09-29T10:49:48.607Z,15.71
2018-09-29T10:50:48.603Z,15.84
2018-09-29T10:51:48.620Z,15.94
2018-09-29T10:52:48.583Z,15.80
2018-09-29T10:53:48.566Z,15.90
2018-09-29T10:54:48.547Z,16.24
2018-09-29T10:55:48.545Z,16.34
2018-09-29T10:56:48.551Z,16.48
2018-09-29T10:57:48.541Z,16.27
2018-09-29T10:58:48.553Z,15.97
2018-09-29T10:59:48.498Z,15.56
2018-09-29T11:00:48.482Z,15.31
2018-09-29T11:01:48.480Z,15.21
2018-09-29T11:02:48.464Z,15.27
2018-09-29T11:03:48.470Z,15.19
2018-09-29T11:04:48.495Z,15.27
2018-09-29T11:05:48.426Z,15.38
2018-09-29T11:06:48.411Z,15.36
2018-09-29T11:07:48.413Z,15.34
2018-09-29T11:08:48.418Z,15.17
2018-09-29T11:09:48.382Z,15.17
2018-09-29T11:10:48.368Z,15.13
2018-09-29T11:11:48.355Z,15.20
2018-09-29T11:12:48.344Z,15.34
2018-09-29T11:13:48.367Z,14.70
2018-09-29T11:14:48.324Z,14.61
2018-09-29T11:15:48.312Z,14.47
2018-09-29T11:16:48.300Z,14.55
2018-09-29T11:17:48.288Z,14.42
2018-09-29T11:18:48.304Z,14.68
2018-09-29T11:19:48.265Z,14.80
2018-09-29T11:20:48.333Z,14.73
2018-09-29T11:21:48.244Z,15.07
2018-09-29T11:22:48.230Z,15.34
2018-09-29T11:23:48.242Z,15.51
2018-09-29T11:24:48.239Z,15.68
2018-09-29T11:25:48.199Z,15.92
2018-09-29T11:26:48.187Z,16.12
2018-09-29T11:27:48.269Z,16.15
2018-09-29T11:28:48.166Z,16.31
2018-09-29T11:29:48.181Z,16.43
2018-09-29T11:30:48.152Z,16.34
2018-09-29T11:31:48.154Z,16.15
2018-09-29T11:32:48.119Z,16.01
2018-09-29T11:33:48.107Z,15.96
2018-09-29T11:34:48.097Z,15.93
2018-09-29T11:35:48.085Z,15.69
2018-09-29T11:36:48.120Z,15.50
2018-09-29T11:37:48.067Z,15.31
2018-09-29T11:38:48.050Z,15.28
2018-09-29T11:39:48.039Z,15.47
2018-09-29T11:40:48.030Z,15.51
2018-09-29T11:41:48.087Z,15.35
2018-09-29T11:42:48.021Z,15.44
2018-09-29T11:43:47.995Z,15.56
2018-09-29T11:44:47.996Z,15.74
2018-09-29T11:45:47.970Z,15.72
2018-09-29T11:46:47.991Z,15.86
2018-09-29T11:47:47.952Z,16.04
2018-09-29T11:48:47.937Z,15.96
2018-09-29T11:49:47.926Z,15.90
2018-09-29T11:50:47.913Z,15.84
2018-09-29T11:51:47.928Z,15.60
2018-09-29T11:52:47.894Z,15.53
2018-09-29T11:53:47.885Z,15.51
2018-09-29T11:54:47.868Z,15.67
2018-09-29T11:55:47.882Z,15.60
2018-09-29T11:56:47.846Z,15.31
2018-09-29T11:57:47.834Z,15.29
2018-09-29T11:58:47.864Z,15.35
2018-09-29T11:59:47.832Z,15.59
2018-09-29T12:00:47.802Z,15.68
2018-09-29T12:01:47.905Z,15.74
2018-09-29T12:02:47.777Z,15.74
2018-09-29T12:03:47.810Z,15.64
2018-09-29T12:04:47.760Z,15.31
2018-09-29T12:05:47.805Z,15.23
2018-09-29T12:06:47.734Z,14.92
2018-09-29T12:07:47.748Z,14.72
2018-09-29T12:08:47.743Z,14.81
2018-09-29T12:09:47.703Z,14.96
2018-09-29T12:10:47.690Z,15.23
2018-09-29T12:11:47.677Z,15.17
2018-09-29T12:12:47.670Z,15.20
2018-09-29T12:13:47.727Z,15.31
2018-09-29T12:14:47.647Z,15.35
2018-09-29T12:15:47.673Z,15.56
2018-09-29T12:16:47.634Z,15.64
2018-09-29T12:17:47.607Z,15.80
2018-09-29T12:18:47.599Z,15.72
2018-09-29T12:19:47.587Z,15.50
2018-09-29T12:20:47.599Z,15.35
2018-09-29T12:21:47.564Z,15.35
2018-09-29T12:22:47.553Z,15.50
2018-09-29T12:23:47.540Z,15.65
2018-09-29T12:24:47.534Z,15.78
2018-09-29T12:25:47.544Z,16.04
2018-09-29T12:26:47.536Z,16.30
2018-09-29T12:27:47.496Z,16.27
2018-09-29T12:28:47.486Z,16.50
2018-09-29T12:29:47.572Z,16.45
2018-09-29T12:30:47.463Z,16.63
2018-09-29T12:31:47.451Z,16.82
2018-09-29T12:32:47.446Z,16.85
2018-09-29T12:33:47.441Z,16.85
2018-09-29T12:34:47.445Z,16.81
2018-09-29T12:35:47.406Z,16.89
2018-09-29T12:36:47.496Z,16.97
2018-09-29T12:37:47.433Z,16.94
2018-09-29T12:38:47.373Z,16.94
2018-09-29T12:39:47.371Z,16.97
2018-09-29T12:40:47.350Z,16.85
2018-09-29T12:41:47.370Z,16.83
2018-09-29T12:42:47.328Z,16.73
2018-09-29T12:43:47.322Z,16.81
2018-09-29T12:44:47.372Z,16.64
2018-09-29T12:45:47.300Z,16.48
2018-09-29T12:46:47.325Z,16.35
2018-09-29T12:47:47.270Z,16.43
2018-09-29T12:48:47.260Z,16.48
2018-09-29T12:49:47.272Z,16.33
2018-09-29T12:50:47.245Z,16.15
2018-09-29T12:51:47.257Z,15.82
2018-09-29T12:52:47.214Z,15.36
2018-09-29T12:53:47.203Z,15.19
2018-09-29T12:54:47.219Z,15.23
2018-09-29T12:55:47.185Z,15.29
2018-09-29T12:56:47.180Z,15.27
2018-09-29T12:57:47.156Z,15.46
2018-09-29T12:58:47.198Z,15.62
2018-09-29T12:59:47.159Z,15.59
2018-09-29T13:00:47.158Z,15.72
2018-09-29T13:01:47.124Z,15.76
2018-09-29T13:02:47.116Z,15.86
2018-09-29T13:03:47.089Z,15.76
2018-09-29T13:04:47.078Z,15.67
2018-09-29T13:05:47.110Z,15.76
2018-09-29T13:06:47.056Z,15.71
2018-09-29T13:07:47.048Z,15.65
2018-09-29T13:08:47.036Z,15.69
2018-09-29T13:09:47.021Z,15.75